sensor_id;sensor_type;location;lat;lon;timestamp;P1;durP1;ratioP1;P2;durP2;ratioP2
19205;SDS011;59358;52.134;5.596;2024-01-30T00:00:24;23.40;;;17.00;;
19205;SDS011;59358;52.134;5.596;2024-01-30T00:02:51;23.48;;;17.27;;
19205;SDS011;59358;52.134;5.596;2024-01-30T00:05:17;26.30;;;17.88;;
19205;SDS011;59358;52.134;5.596;2024-01-30T00:07:45;23.50;;;16.85;;
19205;SDS011;59358;52.134;5.596;2024-01-30T00:10:12;28.05;;;17.45;;
19205;SDS011;59358;52.134;5.596;2024-01-30T00:12:39;26.73;;;16.88;;
19205;SDS011;59358;52.134;5.596;2024-01-30T00:15:06;25.23;;;17.27;;
19205;SDS011;59358;52.134;5.596;2024-01-30T00:17:34;26.80;;;16.40;;
19205;SDS011;59358;52.134;5.596;2024-01-30T00:20:02;25.13;;;17.52;;
19205;SDS011;59358;52.134;5.596;2024-01-30T00:22:30;25.05;;;17.60;;
19205;SDS011;59358;52.134;5.596;2024-01-30T00:24:58;24.65;;;17.63;;
19205;SDS011;59358;52.134;5.596;2024-01-30T00:27:25;25.35;;;17.40;;
19205;SDS011;59358;52.134;5.596;2024-01-30T00:29:52;25.92;;;17.90;;
19205;SDS011;59358;52.134;5.596;2024-01-30T00:32:19;29.10;;;18.77;;
19205;SDS011;59358;52.134;5.596;2024-01-30T00:34:46;29.17;;;18.50;;
19205;SDS011;59358;52.134;5.596;2024-01-30T00:37:12;25.30;;;17.25;;
19205;SDS011;59358;52.134;5.596;2024-01-30T00:39:39;24.00;;;17.25;;
19205;SDS011;59358;52.134;5.596;2024-01-30T00:42:08;24.45;;;17.05;;
19205;SDS011;59358;52.134;5.596;2024-01-30T00:44:35;23.50;;;16.25;;
19205;SDS011;59358;52.134;5.596;2024-01-30T00:47:02;22.80;;;16.95;;
19205;SDS011;59358;52.134;5.596;2024-01-30T00:49:29;29.27;;;18.30;;
19205;SDS011;59358;52.134;5.596;2024-01-30T00:51:55;28.02;;;17.85;;
19205;SDS011;59358;52.134;5.596;2024-01-30T00:54:22;24.58;;;17.02;;
19205;SDS011;59358;52.134;5.596;2024-01-30T00:56:49;25.17;;;17.40;;
19205;SDS011;59358;52.134;5.596;2024-01-30T00:59:17;25.52;;;17.40;;
19205;SDS011;59358;52.134;5.596;2024-01-30T01:01:44;27.55;;;17.98;;
19205;SDS011;59358;52.134;5.596;2024-01-30T01:04:11;24.23;;;15.73;;
19205;SDS011;59358;52.134;5.596;2024-01-30T01:06:37;23.77;;;17.25;;
19205;SDS011;59358;52.134;5.596;2024-01-30T01:09:06;25.13;;;16.58;;
19205;SDS011;59358;52.134;5.596;2024-01-30T01:11:33;25.23;;;17.73;;
19205;SDS011;59358;52.134;5.596;2024-01-30T01:14:00;26.40;;;17.20;;
19205;SDS011;59358;52.134;5.596;2024-01-30T01:16:28;29.48;;;17.90;;
19205;SDS011;59358;52.134;5.596;2024-01-30T01:18:55;24.02;;;17.23;;
19205;SDS011;59358;52.134;5.596;2024-01-30T01:21:22;30.50;;;17.38;;
19205;SDS011;59358;52.134;5.596;2024-01-30T01:23:49;25.45;;;17.50;;
19205;SDS011;59358;52.134;5.596;2024-01-30T01:26:16;26.13;;;17.05;;
19205;SDS011;59358;52.134;5.596;2024-01-30T01:28:42;27.02;;;17.75;;
19205;SDS011;59358;52.134;5.596;2024-01-30T01:31:09;26.63;;;17.88;;
19205;SDS011;59358;52.134;5.596;2024-01-30T01:33:38;28.92;;;17.60;;
19205;SDS011;59358;52.134;5.596;2024-01-30T01:36:04;26.67;;;17.58;;
19205;SDS011;59358;52.134;5.596;2024-01-30T01:38:31;27.05;;;17.10;;
19205;SDS011;59358;52.134;5.596;2024-01-30T01:40:58;24.67;;;16.52;;
19205;SDS011;59358;52.134;5.596;2024-01-30T01:43:25;23.55;;;16.75;;
19205;SDS011;59358;52.134;5.596;2024-01-30T01:45:52;25.50;;;15.95;;
19205;SDS011;59358;52.134;5.596;2024-01-30T01:48:18;28.20;;;17.00;;
19205;SDS011;59358;52.134;5.596;2024-01-30T01:50:47;25.70;;;16.45;;
19205;SDS011;59358;52.134;5.596;2024-01-30T01:53:14;26.15;;;17.25;;
19205;SDS011;59358;52.134;5.596;2024-01-30T01:55:41;26.45;;;16.67;;
19205;SDS011;59358;52.134;5.596;2024-01-30T01:58:08;26.85;;;16.08;;
19205;SDS011;59358;52.134;5.596;2024-01-30T02:00:37;25.52;;;17.10;;
19205;SDS011;59358;52.134;5.596;2024-01-30T02:03:06;23.48;;;17.08;;
19205;SDS011;59358;52.134;5.596;2024-01-30T02:05:36;23.40;;;15.50;;
19205;SDS011;59358;52.134;5.596;2024-01-30T02:08:05;23.88;;;17.33;;
19205;SDS011;59358;52.134;5.596;2024-01-30T02:10:32;24.73;;;17.00;;
19205;SDS011;59358;52.134;5.596;2024-01-30T02:12:59;23.55;;;16.05;;
19205;SDS011;59358;52.134;5.596;2024-01-30T02:15:26;22.83;;;16.02;;
19205;SDS011;59358;52.134;5.596;2024-01-30T02:17:54;24.05;;;15.27;;
19205;SDS011;59358;52.134;5.596;2024-01-30T02:20:21;30.90;;;17.10;;
19205;SDS011;59358;52.134;5.596;2024-01-30T02:22:49;26.25;;;17.63;;
19205;SDS011;59358;52.134;5.596;2024-01-30T02:25:17;21.88;;;16.38;;
19205;SDS011;59358;52.134;5.596;2024-01-30T02:27:44;25.75;;;16.73;;
19205;SDS011;59358;52.134;5.596;2024-01-30T02:30:11;24.67;;;16.48;;
19205;SDS011;59358;52.134;5.596;2024-01-30T02:32:38;26.13;;;16.58;;
19205;SDS011;59358;52.134;5.596;2024-01-30T02:35:05;27.52;;;17.30;;
19205;SDS011;59358;52.134;5.596;2024-01-30T02:37:32;26.60;;;17.70;;
19205;SDS011;59358;52.134;5.596;2024-01-30T02:40:00;27.35;;;17.63;;
19205;SDS011;59358;52.134;5.596;2024-01-30T02:42:27;29.95;;;17.27;;
19205;SDS011;59358;52.134;5.596;2024-01-30T02:44:54;28.55;;;18.02;;
19205;SDS011;59358;52.134;5.596;2024-01-30T02:47:20;30.02;;;17.45;;
19205;SDS011;59358;52.134;5.596;2024-01-30T02:49:47;25.48;;;17.10;;
19205;SDS011;59358;52.134;5.596;2024-01-30T02:52:14;24.23;;;17.38;;
19205;SDS011;59358;52.134;5.596;2024-01-30T02:54:40;26.75;;;16.20;;
19205;SDS011;59358;52.134;5.596;2024-01-30T02:57:09;21.15;;;15.20;;
19205;SDS011;59358;52.134;5.596;2024-01-30T02:59:35;22.77;;;15.32;;
19205;SDS011;59358;52.134;5.596;2024-01-30T03:02:02;21.92;;;15.48;;
19205;SDS011;59358;52.134;5.596;2024-01-30T03:04:29;22.77;;;15.40;;
19205;SDS011;59358;52.134;5.596;2024-01-30T03:06:56;21.52;;;14.27;;
19205;SDS011;59358;52.134;5.596;2024-01-30T03:09:22;20.30;;;15.25;;
19205;SDS011;59358;52.134;5.596;2024-01-30T03:11:49;24.05;;;15.45;;
19205;SDS011;59358;52.134;5.596;2024-01-30T03:14:17;23.40;;;15.13;;
19205;SDS011;59358;52.134;5.596;2024-01-30T03:16:44;20.67;;;14.77;;
19205;SDS011;59358;52.134;5.596;2024-01-30T03:19:11;22.73;;;14.65;;
19205;SDS011;59358;52.134;5.596;2024-01-30T03:21:37;19.88;;;14.07;;
19205;SDS011;59358;52.134;5.596;2024-01-30T03:24:05;19.83;;;14.48;;
19205;SDS011;59358;52.134;5.596;2024-01-30T03:26:31;19.48;;;14.52;;
19205;SDS011;59358;52.134;5.596;2024-01-30T03:28:58;19.10;;;13.68;;
19205;SDS011;59358;52.134;5.596;2024-01-30T03:31:26;20.83;;;14.43;;
19205;SDS011;59358;52.134;5.596;2024-01-30T03:33:53;19.00;;;14.38;;
19205;SDS011;59358;52.134;5.596;2024-01-30T03:36:20;18.80;;;14.20;;
19205;SDS011;59358;52.134;5.596;2024-01-30T03:38:46;20.52;;;13.82;;
19205;SDS011;59358;52.134;5.596;2024-01-30T03:41:13;23.23;;;13.98;;
19205;SDS011;59358;52.134;5.596;2024-01-30T03:43:40;21.58;;;14.25;;
19205;SDS011;59358;52.134;5.596;2024-01-30T03:46:07;21.52;;;14.73;;
19205;SDS011;59358;52.134;5.596;2024-01-30T03:48:35;22.17;;;14.18;;
19205;SDS011;59358;52.134;5.596;2024-01-30T03:51:02;18.73;;;13.25;;
19205;SDS011;59358;52.134;5.596;2024-01-30T03:53:29;22.33;;;13.32;;
19205;SDS011;59358;52.134;5.596;2024-01-30T03:55:56;21.02;;;13.55;;
19205;SDS011;59358;52.134;5.596;2024-01-30T03:58:23;18.80;;;13.35;;
19205;SDS011;59358;52.134;5.596;2024-01-30T04:00:49;17.17;;;13.73;;
19205;SDS011;59358;52.134;5.596;2024-01-30T04:03:16;15.90;;;12.43;;
19205;SDS011;59358;52.134;5.596;2024-01-30T04:05:45;21.02;;;12.88;;
19205;SDS011;59358;52.134;5.596;2024-01-30T04:08:11;16.42;;;12.63;;
19205;SDS011;59358;52.134;5.596;2024-01-30T04:10:38;18.98;;;12.65;;
19205;SDS011;59358;52.134;5.596;2024-01-30T04:13:05;17.45;;;13.00;;
19205;SDS011;59358;52.134;5.596;2024-01-30T04:15:32;18.13;;;12.57;;
19205;SDS011;59358;52.134;5.596;2024-01-30T04:17:58;21.25;;;13.02;;
19205;SDS011;59358;52.134;5.596;2024-01-30T04:20:25;19.83;;;12.18;;
19205;SDS011;59358;52.134;5.596;2024-01-30T04:22:53;17.30;;;12.60;;
19205;SDS011;59358;52.134;5.596;2024-01-30T04:25:20;17.55;;;11.90;;
19205;SDS011;59358;52.134;5.596;2024-01-30T04:27:47;23.13;;;12.10;;
19205;SDS011;59358;52.134;5.596;2024-01-30T04:30:14;17.55;;;12.95;;
19205;SDS011;59358;52.134;5.596;2024-01-30T04:32:42;16.42;;;12.20;;
19205;SDS011;59358;52.134;5.596;2024-01-30T04:35:10;19.73;;;11.73;;
19205;SDS011;59358;52.134;5.596;2024-01-30T04:37:36;18.50;;;12.40;;
19205;SDS011;59358;52.134;5.596;2024-01-30T04:40:05;18.75;;;12.40;;
19205;SDS011;59358;52.134;5.596;2024-01-30T04:42:33;16.60;;;12.25;;
19205;SDS011;59358;52.134;5.596;2024-01-30T04:45:00;19.58;;;12.88;;
19205;SDS011;59358;52.134;5.596;2024-01-30T04:47:27;14.50;;;11.80;;
19205;SDS011;59358;52.134;5.596;2024-01-30T04:49:54;16.90;;;12.43;;
19205;SDS011;59358;52.134;5.596;2024-01-30T04:52:21;17.85;;;11.75;;
19205;SDS011;59358;52.134;5.596;2024-01-30T04:54:48;17.27;;;11.80;;
19205;SDS011;59358;52.134;5.596;2024-01-30T04:57:16;14.98;;;11.27;;
19205;SDS011;59358;52.134;5.596;2024-01-30T04:59:43;16.40;;;11.63;;
19205;SDS011;59358;52.134;5.596;2024-01-30T05:02:09;19.67;;;12.25;;
19205;SDS011;59358;52.134;5.596;2024-01-30T05:04:36;16.52;;;12.05;;
19205;SDS011;59358;52.134;5.596;2024-01-30T05:07:03;16.70;;;11.30;;
19205;SDS011;59358;52.134;5.596;2024-01-30T05:09:30;17.50;;;12.18;;
19205;SDS011;59358;52.134;5.596;2024-01-30T05:11:57;15.52;;;11.25;;
19205;SDS011;59358;52.134;5.596;2024-01-30T05:14:25;17.10;;;11.52;;
19205;SDS011;59358;52.134;5.596;2024-01-30T05:16:52;16.60;;;11.95;;
19205;SDS011;59358;52.134;5.596;2024-01-30T05:19:18;17.85;;;11.55;;
19205;SDS011;59358;52.134;5.596;2024-01-30T05:21:46;17.95;;;12.13;;
19205;SDS011;59358;52.134;5.596;2024-01-30T05:24:13;18.25;;;12.93;;
19205;SDS011;59358;52.134;5.596;2024-01-30T05:26:40;17.85;;;12.15;;
19205;SDS011;59358;52.134;5.596;2024-01-30T05:29:07;17.60;;;12.40;;
19205;SDS011;59358;52.134;5.596;2024-01-30T05:31:35;15.85;;;11.52;;
19205;SDS011;59358;52.134;5.596;2024-01-30T05:34:02;17.58;;;11.50;;
19205;SDS011;59358;52.134;5.596;2024-01-30T05:36:28;20.50;;;12.85;;
19205;SDS011;59358;52.134;5.596;2024-01-30T05:38:55;17.67;;;12.82;;
19205;SDS011;59358;52.134;5.596;2024-01-30T05:41:22;14.93;;;12.00;;
19205;SDS011;59358;52.134;5.596;2024-01-30T05:43:49;18.15;;;12.32;;
19205;SDS011;59358;52.134;5.596;2024-01-30T05:46:18;20.60;;;11.85;;
19205;SDS011;59358;52.134;5.596;2024-01-30T05:48:46;17.52;;;12.18;;
19205;SDS011;59358;52.134;5.596;2024-01-30T05:51:13;14.52;;;11.40;;
19205;SDS011;59358;52.134;5.596;2024-01-30T05:53:40;17.80;;;11.63;;
19205;SDS011;59358;52.134;5.596;2024-01-30T05:56:07;15.23;;;11.20;;
19205;SDS011;59358;52.134;5.596;2024-01-30T05:58:33;15.43;;;11.35;;
19205;SDS011;59358;52.134;5.596;2024-01-30T06:01:02;17.80;;;11.93;;
19205;SDS011;59358;52.134;5.596;2024-01-30T06:03:29;20.48;;;11.35;;
19205;SDS011;59358;52.134;5.596;2024-01-30T06:05:57;14.45;;;10.57;;
19205;SDS011;59358;52.134;5.596;2024-01-30T06:08:23;16.25;;;11.95;;
19205;SDS011;59358;52.134;5.596;2024-01-30T06:10:50;16.40;;;10.75;;
19205;SDS011;59358;52.134;5.596;2024-01-30T06:13:17;14.50;;;10.35;;
19205;SDS011;59358;52.134;5.596;2024-01-30T06:15:44;20.20;;;11.60;;
19205;SDS011;59358;52.134;5.596;2024-01-30T06:18:11;15.75;;;11.27;;
19205;SDS011;59358;52.134;5.596;2024-01-30T06:20:38;15.13;;;12.02;;
19205;SDS011;59358;52.134;5.596;2024-01-30T06:23:06;18.70;;;12.07;;
19205;SDS011;59358;52.134;5.596;2024-01-30T06:25:33;15.00;;;10.73;;
19205;SDS011;59358;52.134;5.596;2024-01-30T06:27:59;15.07;;;11.15;;
19205;SDS011;59358;52.134;5.596;2024-01-30T06:30:26;12.95;;;10.32;;
19205;SDS011;59358;52.134;5.596;2024-01-30T06:32:53;13.50;;;10.98;;
19205;SDS011;59358;52.134;5.596;2024-01-30T06:35:20;15.55;;;11.25;;
19205;SDS011;59358;52.134;5.596;2024-01-30T06:37:46;18.10;;;11.75;;
19205;SDS011;59358;52.134;5.596;2024-01-30T06:40:15;15.40;;;10.73;;
19205;SDS011;59358;52.134;5.596;2024-01-30T06:42:41;17.83;;;10.57;;
19205;SDS011;59358;52.134;5.596;2024-01-30T06:45:09;13.68;;;10.38;;
19205;SDS011;59358;52.134;5.596;2024-01-30T06:47:35;17.92;;;11.18;;
19205;SDS011;59358;52.134;5.596;2024-01-30T06:50:02;15.93;;;11.02;;
19205;SDS011;59358;52.134;5.596;2024-01-30T06:52:29;13.82;;;10.25;;
19205;SDS011;59358;52.134;5.596;2024-01-30T06:54:56;14.57;;;10.63;;
19205;SDS011;59358;52.134;5.596;2024-01-30T06:57:24;15.90;;;11.23;;
19205;SDS011;59358;52.134;5.596;2024-01-30T06:59:53;15.88;;;11.30;;
19205;SDS011;59358;52.134;5.596;2024-01-30T07:02:21;16.35;;;10.45;;
19205;SDS011;59358;52.134;5.596;2024-01-30T07:04:48;16.17;;;10.68;;
19205;SDS011;59358;52.134;5.596;2024-01-30T07:07:15;18.17;;;12.23;;
19205;SDS011;59358;52.134;5.596;2024-01-30T07:09:42;19.05;;;10.98;;
19205;SDS011;59358;52.134;5.596;2024-01-30T07:12:08;13.73;;;10.98;;
19205;SDS011;59358;52.134;5.596;2024-01-30T07:14:37;18.45;;;11.57;;
19205;SDS011;59358;52.134;5.596;2024-01-30T07:17:03;13.45;;;10.23;;
19205;SDS011;59358;52.134;5.596;2024-01-30T07:19:31;14.63;;;10.32;;
19205;SDS011;59358;52.134;5.596;2024-01-30T07:21:58;16.42;;;11.13;;
19205;SDS011;59358;52.134;5.596;2024-01-30T07:24:24;16.20;;;10.43;;
19205;SDS011;59358;52.134;5.596;2024-01-30T07:26:52;18.38;;;11.07;;
19205;SDS011;59358;52.134;5.596;2024-01-30T07:29:19;14.10;;;9.88;;
19205;SDS011;59358;52.134;5.596;2024-01-30T07:31:48;19.48;;;10.85;;
19205;SDS011;59358;52.134;5.596;2024-01-30T07:34:15;16.08;;;11.05;;
19205;SDS011;59358;52.134;5.596;2024-01-30T07:36:41;18.80;;;10.90;;
19205;SDS011;59358;52.134;5.596;2024-01-30T07:39:08;19.33;;;12.07;;
19205;SDS011;59358;52.134;5.596;2024-01-30T07:41:36;15.77;;;11.18;;
19205;SDS011;59358;52.134;5.596;2024-01-30T07:44:02;17.92;;;11.20;;
19205;SDS011;59358;52.134;5.596;2024-01-30T07:46:29;16.42;;;10.70;;
19205;SDS011;59358;52.134;5.596;2024-01-30T07:48:58;15.60;;;10.60;;
19205;SDS011;59358;52.134;5.596;2024-01-30T07:51:25;16.85;;;10.60;;
19205;SDS011;59358;52.134;5.596;2024-01-30T07:53:54;14.15;;;10.48;;
19205;SDS011;59358;52.134;5.596;2024-01-30T07:56:24;16.05;;;10.30;;
19205;SDS011;59358;52.134;5.596;2024-01-30T07:58:51;16.50;;;10.43;;
19205;SDS011;59358;52.134;5.596;2024-01-30T08:01:18;14.38;;;10.10;;
19205;SDS011;59358;52.134;5.596;2024-01-30T08:03:45;16.17;;;10.50;;
19205;SDS011;59358;52.134;5.596;2024-01-30T08:06:13;14.80;;;9.52;;
19205;SDS011;59358;52.134;5.596;2024-01-30T08:08:40;15.23;;;9.98;;
19205;SDS011;59358;52.134;5.596;2024-01-30T08:11:07;13.95;;;9.40;;
19205;SDS011;59358;52.134;5.596;2024-01-30T08:13:34;18.48;;;9.88;;
19205;SDS011;59358;52.134;5.596;2024-01-30T08:16:00;14.90;;;9.23;;
19205;SDS011;59358;52.134;5.596;2024-01-30T08:18:27;15.55;;;10.15;;
19205;SDS011;59358;52.134;5.596;2024-01-30T08:20:54;15.18;;;8.63;;
19205;SDS011;59358;52.134;5.596;2024-01-30T08:23:22;15.13;;;9.30;;
19205;SDS011;59358;52.134;5.596;2024-01-30T08:25:49;12.35;;;9.07;;
19205;SDS011;59358;52.134;5.596;2024-01-30T08:28:15;12.93;;;8.63;;
19205;SDS011;59358;52.134;5.596;2024-01-30T08:30:42;13.52;;;8.90;;
19205;SDS011;59358;52.134;5.596;2024-01-30T08:33:09;19.80;;;9.85;;
19205;SDS011;59358;52.134;5.596;2024-01-30T08:35:36;14.35;;;8.75;;
19205;SDS011;59358;52.134;5.596;2024-01-30T08:38:03;15.45;;;10.07;;
19205;SDS011;59358;52.134;5.596;2024-01-30T08:40:31;15.35;;;9.38;;
19205;SDS011;59358;52.134;5.596;2024-01-30T08:42:58;15.98;;;9.20;;
19205;SDS011;59358;52.134;5.596;2024-01-30T08:45:25;20.45;;;9.93;;
19205;SDS011;59358;52.134;5.596;2024-01-30T08:47:52;13.88;;;9.00;;
19205;SDS011;59358;52.134;5.596;2024-01-30T08:50:19;13.15;;;8.77;;
19205;SDS011;59358;52.134;5.596;2024-01-30T08:52:46;13.23;;;9.27;;
19205;SDS011;59358;52.134;5.596;2024-01-30T08:55:13;19.73;;;10.25;;
19205;SDS011;59358;52.134;5.596;2024-01-30T08:57:41;20.00;;;10.27;;
19205;SDS011;59358;52.134;5.596;2024-01-30T09:00:08;18.92;;;10.18;;
19205;SDS011;59358;52.134;5.596;2024-01-30T09:02:36;15.80;;;10.75;;
19205;SDS011;59358;52.134;5.596;2024-01-30T09:05:03;14.77;;;10.15;;
19205;SDS011;59358;52.134;5.596;2024-01-30T09:07:30;16.15;;;11.20;;
19205;SDS011;59358;52.134;5.596;2024-01-30T09:09:57;19.45;;;10.35;;
19205;SDS011;59358;52.134;5.596;2024-01-30T09:12:24;18.67;;;11.35;;
19205;SDS011;59358;52.134;5.596;2024-01-30T09:14:52;16.38;;;9.45;;
19205;SDS011;59358;52.134;5.596;2024-01-30T09:17:20;15.23;;;10.20;;
19205;SDS011;59358;52.134;5.596;2024-01-30T09:19:46;18.73;;;10.10;;
19205;SDS011;59358;52.134;5.596;2024-01-30T09:22:13;16.50;;;10.50;;
19205;SDS011;59358;52.134;5.596;2024-01-30T09:24:40;15.82;;;9.65;;
19205;SDS011;59358;52.134;5.596;2024-01-30T09:27:07;15.00;;;9.73;;
19205;SDS011;59358;52.134;5.596;2024-01-30T09:29:34;19.30;;;10.15;;
19205;SDS011;59358;52.134;5.596;2024-01-30T09:32:03;18.13;;;10.20;;
19205;SDS011;59358;52.134;5.596;2024-01-30T09:34:30;13.88;;;10.18;;
19205;SDS011;59358;52.134;5.596;2024-01-30T09:36:58;20.33;;;10.98;;
19205;SDS011;59358;52.134;5.596;2024-01-30T09:39:25;17.45;;;10.45;;
19205;SDS011;59358;52.134;5.596;2024-01-30T09:41:53;17.48;;;10.57;;
19205;SDS011;59358;52.134;5.596;2024-01-30T09:44:28;16.83;;;10.75;;
19205;SDS011;59358;52.134;5.596;2024-01-30T09:46:55;16.55;;;10.25;;
19205;SDS011;59358;52.134;5.596;2024-01-30T09:49:29;19.38;;;11.98;;
19205;SDS011;59358;52.134;5.596;2024-01-30T09:51:58;19.17;;;12.13;;
19205;SDS011;59358;52.134;5.596;2024-01-30T09:54:24;16.52;;;9.73;;
19205;SDS011;59358;52.134;5.596;2024-01-30T09:56:51;20.45;;;10.70;;
19205;SDS011;59358;52.134;5.596;2024-01-30T09:59:22;18.10;;;10.50;;
19205;SDS011;59358;52.134;5.596;2024-01-30T10:01:49;15.60;;;10.88;;
19205;SDS011;59358;52.134;5.596;2024-01-30T10:04:17;21.48;;;10.45;;
19205;SDS011;59358;52.134;5.596;2024-01-30T10:06:45;21.13;;;11.50;;
19205;SDS011;59358;52.134;5.596;2024-01-30T10:09:13;14.82;;;9.40;;
19205;SDS011;59358;52.134;5.596;2024-01-30T10:11:44;17.73;;;10.20;;
19205;SDS011;59358;52.134;5.596;2024-01-30T10:14:10;19.98;;;9.90;;
19205;SDS011;59358;52.134;5.596;2024-01-30T10:16:37;15.40;;;9.07;;
19205;SDS011;59358;52.134;5.596;2024-01-30T10:19:04;15.73;;;9.57;;
19205;SDS011;59358;52.134;5.596;2024-01-30T10:21:31;16.70;;;9.77;;
19205;SDS011;59358;52.134;5.596;2024-01-30T10:23:59;13.80;;;9.52;;
19205;SDS011;59358;52.134;5.596;2024-01-30T10:26:26;13.52;;;8.70;;
19205;SDS011;59358;52.134;5.596;2024-01-30T10:28:54;16.77;;;9.68;;
19205;SDS011;59358;52.134;5.596;2024-01-30T10:31:21;16.58;;;9.43;;
19205;SDS011;59358;52.134;5.596;2024-01-30T10:33:49;13.77;;;8.77;;
19205;SDS011;59358;52.134;5.596;2024-01-30T10:36:16;19.70;;;9.05;;
19205;SDS011;59358;52.134;5.596;2024-01-30T10:38:44;15.02;;;7.68;;
19205;SDS011;59358;52.134;5.596;2024-01-30T10:41:15;13.93;;;9.13;;
19205;SDS011;59358;52.134;5.596;2024-01-30T10:43:47;12.77;;;9.18;;
19205;SDS011;59358;52.134;5.596;2024-01-30T10:46:21;13.75;;;8.10;;
19205;SDS011;59358;52.134;5.596;2024-01-30T10:48:55;16.48;;;8.05;;
19205;SDS011;59358;52.134;5.596;2024-01-30T10:51:24;14.45;;;8.27;;
19205;SDS011;59358;52.134;5.596;2024-01-30T10:53:52;17.60;;;8.50;;
19205;SDS011;59358;52.134;5.596;2024-01-30T10:56:21;15.90;;;8.60;;
19205;SDS011;59358;52.134;5.596;2024-01-30T10:58:48;15.02;;;8.23;;
19205;SDS011;59358;52.134;5.596;2024-01-30T11:01:16;14.55;;;8.70;;
19205;SDS011;59358;52.134;5.596;2024-01-30T11:03:43;20.98;;;8.48;;
19205;SDS011;59358;52.134;5.596;2024-01-30T11:06:10;13.60;;;8.38;;
19205;SDS011;59358;52.134;5.596;2024-01-30T11:08:39;13.68;;;8.35;;
19205;SDS011;59358;52.134;5.596;2024-01-30T11:11:08;15.68;;;8.13;;
19205;SDS011;59358;52.134;5.596;2024-01-30T11:13:37;16.67;;;8.68;;
19205;SDS011;59358;52.134;5.596;2024-01-30T11:16:04;17.90;;;8.68;;
19205;SDS011;59358;52.134;5.596;2024-01-30T11:18:32;17.25;;;7.82;;
19205;SDS011;59358;52.134;5.596;2024-01-30T11:21:01;14.27;;;8.32;;
19205;SDS011;59358;52.134;5.596;2024-01-30T11:23:32;20.77;;;8.98;;
19205;SDS011;59358;52.134;5.596;2024-01-30T11:26:00;11.98;;;7.55;;
19205;SDS011;59358;52.134;5.596;2024-01-30T11:28:31;13.68;;;8.50;;
19205;SDS011;59358;52.134;5.596;2024-01-30T11:31:04;13.68;;;7.65;;
19205;SDS011;59358;52.134;5.596;2024-01-30T11:33:32;13.52;;;8.15;;
19205;SDS011;59358;52.134;5.596;2024-01-30T11:35:59;13.38;;;7.65;;
19205;SDS011;59358;52.134;5.596;2024-01-30T11:38:27;13.95;;;7.75;;
19205;SDS011;59358;52.134;5.596;2024-01-30T11:40:54;14.48;;;7.68;;
19205;SDS011;59358;52.134;5.596;2024-01-30T11:43:22;8.32;;;5.93;;
19205;SDS011;59358;52.134;5.596;2024-01-30T11:45:49;16.88;;;7.10;;
19205;SDS011;59358;52.134;5.596;2024-01-30T11:48:18;18.40;;;6.82;;
19205;SDS011;59358;52.134;5.596;2024-01-30T11:50:45;9.70;;;5.45;;
19205;SDS011;59358;52.134;5.596;2024-01-30T11:53:12;10.18;;;5.50;;
19205;SDS011;59358;52.134;5.596;2024-01-30T11:55:39;13.90;;;5.97;;
19205;SDS011;59358;52.134;5.596;2024-01-30T11:58:06;12.30;;;6.72;;
19205;SDS011;59358;52.134;5.596;2024-01-30T12:00:33;11.40;;;6.22;;
19205;SDS011;59358;52.134;5.596;2024-01-30T12:03:04;9.70;;;5.55;;
19205;SDS011;59358;52.134;5.596;2024-01-30T12:05:33;8.88;;;4.07;;
19205;SDS011;59358;52.134;5.596;2024-01-30T12:08:01;7.65;;;4.35;;
19205;SDS011;59358;52.134;5.596;2024-01-30T12:10:27;10.02;;;4.38;;
19205;SDS011;59358;52.134;5.596;2024-01-30T12:12:54;8.35;;;3.50;;
19205;SDS011;59358;52.134;5.596;2024-01-30T12:15:21;8.07;;;3.45;;
19205;SDS011;59358;52.134;5.596;2024-01-30T12:17:49;8.60;;;3.33;;
19205;SDS011;59358;52.134;5.596;2024-01-30T12:20:17;12.90;;;3.25;;
19205;SDS011;59358;52.134;5.596;2024-01-30T12:22:48;5.57;;;3.10;;
19205;SDS011;59358;52.134;5.596;2024-01-30T12:25:16;6.60;;;3.03;;
19205;SDS011;59358;52.134;5.596;2024-01-30T12:27:45;6.38;;;2.72;;
19205;SDS011;59358;52.134;5.596;2024-01-30T12:30:15;9.68;;;3.42;;
19205;SDS011;59358;52.134;5.596;2024-01-30T12:32:43;6.35;;;2.75;;
19205;SDS011;59358;52.134;5.596;2024-01-30T12:35:11;5.53;;;2.30;;
19205;SDS011;59358;52.134;5.596;2024-01-30T12:37:38;6.25;;;2.63;;
19205;SDS011;59358;52.134;5.596;2024-01-30T12:40:07;4.78;;;2.95;;
19205;SDS011;59358;52.134;5.596;2024-01-30T12:42:34;7.43;;;3.10;;
19205;SDS011;59358;52.134;5.596;2024-01-30T12:45:01;7.75;;;3.40;;
19205;SDS011;59358;52.134;5.596;2024-01-30T12:47:29;13.60;;;4.05;;
19205;SDS011;59358;52.134;5.596;2024-01-30T12:49:56;7.03;;;3.65;;
19205;SDS011;59358;52.134;5.596;2024-01-30T12:52:24;10.63;;;4.43;;
19205;SDS011;59358;52.134;5.596;2024-01-30T12:54:51;6.28;;;3.72;;
19205;SDS011;59358;52.134;5.596;2024-01-30T12:57:19;10.30;;;4.00;;
19205;SDS011;59358;52.134;5.596;2024-01-30T12:59:46;8.80;;;3.70;;
19205;SDS011;59358;52.134;5.596;2024-01-30T13:02:14;6.85;;;3.30;;
19205;SDS011;59358;52.134;5.596;2024-01-30T13:04:41;6.63;;;3.40;;
19205;SDS011;59358;52.134;5.596;2024-01-30T13:07:09;9.05;;;3.38;;
19205;SDS011;59358;52.134;5.596;2024-01-30T13:09:35;5.55;;;3.70;;
19205;SDS011;59358;52.134;5.596;2024-01-30T13:12:03;7.95;;;3.75;;
19205;SDS011;59358;52.134;5.596;2024-01-30T13:14:31;7.57;;;4.18;;
19205;SDS011;59358;52.134;5.596;2024-01-30T13:16:58;10.52;;;4.00;;
19205;SDS011;59358;52.134;5.596;2024-01-30T13:19:25;9.20;;;3.45;;
19205;SDS011;59358;52.134;5.596;2024-01-30T13:21:52;12.20;;;3.33;;
19205;SDS011;59358;52.134;5.596;2024-01-30T13:24:19;10.55;;;4.00;;
19205;SDS011;59358;52.134;5.596;2024-01-30T13:26:46;7.53;;;3.53;;
19205;SDS011;59358;52.134;5.596;2024-01-30T13:29:13;7.28;;;3.40;;
19205;SDS011;59358;52.134;5.596;2024-01-30T13:31:41;4.97;;;3.22;;
19205;SDS011;59358;52.134;5.596;2024-01-30T13:34:09;7.95;;;3.80;;
19205;SDS011;59358;52.134;5.596;2024-01-30T13:36:36;9.25;;;3.80;;
19205;SDS011;59358;52.134;5.596;2024-01-30T13:39:02;8.98;;;3.58;;
19205;SDS011;59358;52.134;5.596;2024-01-30T13:41:32;10.50;;;3.80;;
19205;SDS011;59358;52.134;5.596;2024-01-30T13:43:59;11.15;;;3.22;;
19205;SDS011;59358;52.134;5.596;2024-01-30T13:46:28;12.23;;;4.10;;
19205;SDS011;59358;52.134;5.596;2024-01-30T13:48:56;6.38;;;3.80;;
19205;SDS011;59358;52.134;5.596;2024-01-30T13:51:23;7.40;;;3.80;;
19205;SDS011;59358;52.134;5.596;2024-01-30T13:53:50;6.97;;;4.15;;
19205;SDS011;59358;52.134;5.596;2024-01-30T13:56:17;6.00;;;2.78;;
19205;SDS011;59358;52.134;5.596;2024-01-30T13:58:43;3.58;;;2.50;;
19205;SDS011;59358;52.134;5.596;2024-01-30T14:01:10;4.45;;;2.17;;
19205;SDS011;59358;52.134;5.596;2024-01-30T14:03:37;4.80;;;2.00;;
19205;SDS011;59358;52.134;5.596;2024-01-30T14:06:06;3.78;;;1.80;;
19205;SDS011;59358;52.134;5.596;2024-01-30T14:08:32;4.15;;;1.60;;
19205;SDS011;59358;52.134;5.596;2024-01-30T14:10:59;6.45;;;1.42;;
19205;SDS011;59358;52.134;5.596;2024-01-30T14:13:26;3.75;;;1.45;;
19205;SDS011;59358;52.134;5.596;2024-01-30T14:15:53;5.80;;;1.67;;
19205;SDS011;59358;52.134;5.596;2024-01-30T14:18:20;6.38;;;1.73;;
19205;SDS011;59358;52.134;5.596;2024-01-30T14:20:47;4.50;;;1.45;;
19205;SDS011;59358;52.134;5.596;2024-01-30T14:23:17;5.90;;;1.65;;
19205;SDS011;59358;52.134;5.596;2024-01-30T14:25:44;4.95;;;1.50;;
19205;SDS011;59358;52.134;5.596;2024-01-30T14:28:11;6.40;;;1.60;;